Time;durP1;ratioP1;P1;durP2;ratioP2;P2;SDS_P1;SDS_P2;PMS_P1;PMS_P2;Temp;Humidity;BMP_temperature;BMP_pressure;BME280_temperature;BME280_humidity;BME280_pressure;Samples;Min_cycle;Max_cycle;Signal;HPM_P1;HPM_P2
2023/06/15 00:02:03;;;;;;;12.90;5.40;;;;;;;14.98;66.47;100911.93;110947;1212;98958;-63
2023/06/15 00:04:29;;;;;;;8.50;4.80;;;;;;;14.99;66.58;100913.69;111072;1217;99001;-63
2023/06/15 00:06:54;;;;;;;13.10;5.70;;;;;;;15.01;66.51;100913.58;110845;1212;138882;-63
2023/06/15 00:09:19;;;;;;;10.00;6.40;;;;;;;14.99;66.49;100910.63;110894;1212;99177;-63
2023/06/15 00:11:45;;;;;;;8.50;5.50;;;;;;;14.98;66.51;100908.89;110855;1209;140651;-63
2023/06/15 00:14:10;;;;;;;13.70;6.20;;;;;;;14.97;66.73;100910.19;111035;1211;99351;-63
2023/06/15 00:16:41;;;;;;;8.00;5.70;;;;;;;14.95;66.72;100906.55;110970;1209;98999;-63
2023/06/15 00:19:08;;;;;;;9.20;5.10;;;;;;;14.93;66.89;100901.75;110819;1212;140926;-63
2023/06/15 00:21:41;;;;;;;13.50;6.10;;;;;;;14.93;66.83;100902.29;111019;1209;99385;-63
2023/06/15 00:24:09;;;;;;;10.40;7.00;;;;;;;14.89;66.81;100903.77;110922;1209;139769;-63
2023/06/15 00:26:35;;;;;;;12.60;6.10;;;;;;;14.84;67.01;100903.17;110972;1209;100092;-63
2023/06/15 00:29:01;;;;;;;9.00;5.80;;;;;;;14.77;67.14;100903.63;110954;1212;98233;-63
2023/06/15 00:31:26;;;;;;;8.70;5.10;;;;;;;14.74;67.36;100902.50;110966;1208;140446;-63
2023/06/15 00:33:52;;;;;;;13.00;6.20;;;;;;;14.72;67.42;100902.98;111008;1208;99025;-63
2023/06/15 00:36:17;;;;;;;9.90;5.70;;;;;;;14.68;67.55;100897.48;110885;1210;139618;-63
2023/06/15 00:38:43;;;;;;;9.30;6.20;;;;;;;14.65;67.71;100898.20;111071;1212;98938;-63
2023/06/15 00:41:10;;;;;;;9.50;5.50;;;;;;;14.63;67.80;100901.15;110943;1219;99113;-63
2023/06/15 00:43:36;;;;;;;10.70;6.00;;;;;;;14.61;68.04;100896.20;110873;1209;139338;-63
2023/06/15 00:46:03;;;;;;;10.20;6.10;;;;;;;14.60;68.10;100895.89;111040;1210;99510;-63
2023/06/15 00:48:29;;;;;;;8.50;5.40;;;;;;;14.58;68.13;100893.32;110937;1212;140076;-63
2023/06/15 00:50:55;;;;;;;9.90;5.50;;;;;;;14.57;68.28;100894.98;110996;1209;98954;-63
2023/06/15 00:53:22;;;;;;;8.80;6.00;;;;;;;14.56;68.28;100892.70;110934;1208;99045;-63
2023/06/15 00:55:48;;;;;;;7.50;5.80;;;;;;;14.54;68.34;100893.17;111280;1209;98976;-63
2023/06/15 00:58:15;;;;;;;9.50;5.70;;;;;;;14.47;68.52;100889.44;111057;1209;99012;-63
2023/06/15 01:00:41;;;;;;;7.10;5.30;;;;;;;14.39;68.73;100888.29;111100;1210;139401;-63
2023/06/15 01:03:06;;;;;;;9.60;5.90;;;;;;;14.34;68.90;100885.88;110972;1211;100215;-63
2023/06/15 01:05:36;;;;;;;12.70;6.40;;;;;;;14.34;69.18;100887.80;110923;1211;140820;-62
2023/06/15 01:08:04;;;;;;;10.00;6.10;;;;;;;14.37;69.16;100886.02;110952;1212;98956;-63
2023/06/15 01:10:31;;;;;;;9.90;6.10;;;;;;;14.34;69.35;100880.83;111059;1211;99062;-63
2023/06/15 01:13:02;;;;;;;9.60;6.30;;;;;;;14.32;69.41;100882.34;110899;1209;139778;-63
2023/06/15 01:15:27;;;;;;;11.60;6.20;;;;;;;14.30;69.56;100881.17;110983;1209;100051;-63
2023/06/15 01:17:57;;;;;;;14.60;6.70;;;;;;;14.29;69.74;100876.42;110877;1221;139334;-63
2023/06/15 01:20:39;;;;;;;9.90;5.60;;;;;;;14.30;69.86;100877.96;111020;1209;98995;-63
2023/06/15 01:23:40;;;;;;;11.00;6.60;;;;;;;14.29;69.96;100873.36;110964;1209;98003;-63
2023/06/15 01:26:07;;;;;;;9.70;6.00;;;;;;;14.28;70.26;100873.20;110989;1209;112935;-63
2023/06/15 01:28:47;;;;;;;10.00;6.00;;;;;;;14.31;70.15;100873.96;110977;1208;99107;-63
2023/06/15 01:31:13;;;;;;;10.70;6.60;;;;;;;14.32;70.17;100875.50;110775;1211;140303;-63
2023/06/15 01:33:48;;;;;;;8.90;6.10;;;;;;;14.33;70.26;100875.81;110974;1212;99037;-63
2023/06/15 01:36:14;;;;;;;10.60;6.70;;;;;;;14.35;70.38;100877.55;110854;1212;140521;-63
2023/06/15 01:38:41;;;;;;;9.40;6.30;;;;;;;14.38;70.49;100879.36;111037;1208;98736;-63
2023/06/15 01:41:08;;;;;;;8.60;6.00;;;;;;;14.40;70.56;100878.48;110974;1211;98967;-63
2023/06/15 01:43:36;;;;;;;9.60;6.30;;;;;;;14.43;70.59;100877.11;110911;1210;141041;-63
2023/06/15 01:46:03;;;;;;;10.30;6.50;;;;;;;14.39;70.47;100874.93;110944;1212;99038;-63
2023/06/15 01:48:30;;;;;;;11.30;6.00;;;;;;;14.33;70.70;100871.69;110683;1212;139845;-63
2023/06/15 01:50:56;;;;;;;10.10;6.20;;;;;;;14.34;70.79;100870.39;111242;1211;99146;-63
2023/06/15 01:53:21;;;;;;;10.80;6.20;;;;;;;14.35;70.86;100868.52;110925;1208;108242;-63
2023/06/15 01:55:47;;;;;;;8.00;5.90;;;;;;;14.35;70.96;100868.70;110858;1209;139650;-63
2023/06/15 01:58:15;;;;;;;9.00;6.10;;;;;;;14.35;71.06;100864.59;111042;1212;99063;-64
2023/06/15 02:00:41;;;;;;;8.20;6.00;;;;;;;14.37;71.31;100863.39;110869;1209;139654;-63
2023/06/15 02:03:07;;;;;;;12.60;7.10;;;;;;;14.41;71.25;100860.84;110955;1208;99580;-64
2023/06/15 02:05:38;;;;;;;9.10;6.20;;;;;;;14.43;71.29;100865.76;110942;1212;139877;-63
2023/06/15 02:08:04;;;;;;;11.50;6.60;;;;;;;14.42;71.18;100868.18;110976;1212;112625;-63
2023/06/15 02:10:29;;;;;;;10.20;6.80;;;;;;;14.42;71.28;100867.27;111019;1208;98976;-63
2023/06/15 02:12:56;;;;;;;9.50;6.70;;;;;;;14.40;71.22;100867.90;110949;1208;140605;-63
2023/06/15 02:15:21;;;;;;;7.40;5.70;;;;;;;14.34;71.36;100867.52;110990;1211;100591;-63
2023/06/15 02:17:47;;;;;;;11.30;6.60;;;;;;;14.28;71.63;100865.33;110886;1208;141336;-63
2023/06/15 02:20:12;;;;;;;8.30;6.70;;;;;;;14.25;71.78;100863.84;111029;1207;98969;-63
2023/06/15 02:22:38;;;;;;;9.70;6.40;;;;;;;14.25;71.96;100860.98;110976;1211;99043;-63
2023/06/15 02:25:04;;;;;;;12.10;6.20;;;;;;;14.25;71.89;100863.46;110904;1211;140403;-63
2023/06/15 02:27:30;;;;;;;11.40;6.80;;;;;;;14.24;72.00;100864.80;111173;1212;99388;-63
2023/06/15 02:29:55;;;;;;;11.40;6.50;;;;;;;14.21;71.99;100863.91;110882;1211;141328;-63
2023/06/15 02:32:34;;;;;;;12.40;6.40;;;;;;;14.20;72.22;100864.70;111064;1209;102784;-63
2023/06/15 02:35:00;;;;;;;15.20;6.60;;;;;;;14.19;72.27;100863.11;111054;1209;113529;-63
2023/06/15 02:37:25;;;;;;;12.80;6.90;;;;;;;14.21;72.43;100863.74;111039;1211;140744;-63
2023/06/15 02:39:50;;;;;;;10.50;6.10;;;;;;;14.24;72.46;100860.88;111065;1218;98933;-63
2023/06/15 02:42:15;;;;;;;8.80;5.90;;;;;;;14.26;72.44;100862.54;110866;1209;139417;-63
2023/06/15 02:44:41;;;;;;;14.20;6.80;;;;;;;14.24;72.29;100859.60;111079;1209;99003;-63
2023/06/15 02:47:06;;;;;;;8.10;5.80;;;;;;;14.21;72.38;100861.23;110976;1212;98965;-63
2023/06/15 02:49:31;;;;;;;9.20;5.60;;;;;;;14.20;72.44;100863.79;110924;1211;139921;-63
2023/06/15 02:51:57;;;;;;;15.10;6.20;;;;;;;14.20;72.57;100865.02;111106;1208;99242;-63
2023/06/15 02:54:23;;;;;;;10.60;6.20;;;;;;;14.22;72.57;100863.67;110902;1210;139888;-63
2023/06/15 02:56:48;;;;;;;9.50;5.70;;;;;;;14.24;72.47;100868.79;110952;1209;99035;-63
2023/06/15 02:59:15;;;;;;;11.20;6.20;;;;;;;14.19;72.33;100867.21;111033;1208;98193;-63
2023/06/15 03:01:41;;;;;;;8.00;5.10;;;;;;;14.15;72.47;100868.18;110865;1211;139587;-63
2023/06/15 03:04:09;;;;;;;7.20;4.70;;;;;;;14.14;72.54;100867.54;110957;1208;99020;-63
2023/06/15 03:06:36;;;;;;;7.50;4.90;;;;;;;14.13;72.59;100868.47;110867;1208;139299;-63
2023/06/15 03:09:02;;;;;;;7.70;4.70;;;;;;;14.14;72.63;100868.82;110942;1219;98970;-63
2023/06/15 03:11:27;;;;;;;10.00;5.40;;;;;;;14.16;72.65;100866.88;110962;1211;139577;-63
2023/06/15 03:13:53;;;;;;;8.30;5.40;;;;;;;14.19;72.63;100870.10;111066;1210;98952;-63
2023/06/15 03:16:19;;;;;;;7.80;5.60;;;;;;;14.22;72.70;100870.48;110909;1208;99625;-63
2023/06/15 03:18:44;;;;;;;8.30;5.30;;;;;;;14.25;72.57;100870.86;110931;1211;139711;-63
2023/06/15 03:21:09;;;;;;;8.90;5.30;;;;;;;14.26;72.60;100870.65;110987;1209;98932;-63
2023/06/15 03:23:34;;;;;;;8.40;4.40;;;;;;;14.27;72.49;100876.48;110946;1210;139621;-63
2023/06/15 03:26:00;;;;;;;9.80;5.50;;;;;;;14.26;72.55;100874.94;110957;1210;101895;-64
2023/06/15 03:28:27;;;;;;;8.60;5.10;;;;;;;14.26;72.48;100872.44;111000;1209;98942;-63
2023/06/15 03:30:56;;;;;;;10.40;4.40;;;;;;;14.25;72.40;100873.02;110871;1211;138984;-63
2023/06/15 03:33:22;;;;;;;8.00;4.70;;;;;;;14.25;72.44;100874.80;110996;1211;99021;-63
2023/06/15 03:35:49;;;;;;;6.70;4.60;;;;;;;14.27;72.48;100875.23;110876;1211;139145;-63
2023/06/15 03:38:16;;;;;;;12.40;5.00;;;;;;;14.31;72.51;100876.45;111020;1211;99025;-63
2023/06/15 03:40:42;;;;;;;9.60;5.40;;;;;;;14.36;72.40;100882.13;111038;1211;112900;-63
2023/06/15 03:43:09;;;;;;;7.90;4.90;;;;;;;14.36;72.32;100882.48;110840;1211;138994;-63
2023/06/15 03:45:35;;;;;;;7.10;4.30;;;;;;;14.35;72.23;100880.41;110976;1211;99065;-63
2023/06/15 03:48:00;;;;;;;12.30;5.30;;;;;;;14.32;72.26;100878.77;110929;1211;140832;-63
2023/06/15 03:50:25;;;;;;;5.60;4.20;;;;;;;14.31;72.30;100877.21;110956;1211;98933;-63
2023/06/15 03:52:51;;;;;;;7.70;5.10;;;;;;;14.35;72.41;100876.27;110968;1209;98945;-63
2023/06/15 03:55:16;;;;;;;7.90;5.00;;;;;;;14.38;72.30;100881.46;110906;1211;138948;-66
2023/06/15 03:57:41;;;;;;;5.80;4.70;;;;;;;14.36;72.22;100876.57;110997;1211;99010;-63
2023/06/15 04:00:07;;;;;;;8.60;5.10;;;;;;;14.30;72.31;100875.11;110923;1211;139601;-64
2023/06/15 04:02:33;;;;;;;14.00;4.70;;;;;;;14.30;72.41;100878.84;110992;1211;99128;-63
2023/06/15 04:05:00;;;;;;;15.00;5.00;;;;;;;14.32;72.39;100877.15;110937;1210;98978;-63
2023/06/15 04:07:28;;;;;;;9.60;4.80;;;;;;;14.34;72.39;100879.89;111027;1211;140179;-63
2023/06/15 04:09:53;;;;;;;8.70;5.10;;;;;;;14.37;72.33;100880.12;111180;1210;99276;-63
2023/06/15 04:12:18;;;;;;;9.20;5.20;;;;;;;14.38;72.34;100882.40;110870;1209;140533;-63
2023/06/15 04:14:43;;;;;;;8.60;4.90;;;;;;;14.41;72.28;100882.05;110971;1211;99073;-63
2023/06/15 04:17:09;;;;;;;9.00;5.00;;;;;;;14.44;72.21;100882.42;111023;1209;98957;-63
2023/06/15 04:19:34;;;;;;;12.70;5.20;;;;;;;14.44;71.98;100883.90;110896;1209;140508;-63
2023/06/15 04:21:59;;;;;;;9.40;5.10;;;;;;;14.41;72.10;100883.30;111045;1211;99012;-63
2023/06/15 04:24:24;;;;;;;10.90;5.40;;;;;;;14.41;72.00;100886.34;110883;1208;140827;-63
2023/06/15 04:26:50;;;;;;;7.60;4.90;;;;;;;14.41;72.09;100885.45;111013;1208;98950;-63
2023/06/15 04:29:18;;;;;;;9.50;4.40;;;;;;;14.43;72.07;100891.64;110941;1208;99108;-63
2023/06/15 04:31:44;;;;;;;7.20;4.50;;;;;;;14.43;71.97;100887.91;110875;1208;139776;-63
2023/06/15 04:34:11;;;;;;;9.20;4.50;;;;;;;14.46;72.06;100891.30;111033;1208;98947;-63
2023/06/15 04:36:39;;;;;;;8.50;5.00;;;;;;;14.51;71.95;100887.27;110924;1211;139651;-63
2023/06/15 04:39:04;;;;;;;12.80;5.10;;;;;;;14.56;71.98;100890.77;110980;1209;98980;-63
2023/06/15 04:41:31;;;;;;;6.80;4.30;;;;;;;14.58;71.88;100890.25;110969;1211;139999;-63
2023/06/15 04:43:57;;;;;;;8.70;5.10;;;;;;;14.56;71.85;100891.48;110994;1208;99754;-63
2023/06/15 04:46:23;;;;;;;8.20;4.40;;;;;;;14.57;71.85;100892.65;111005;1212;98952;-65
2023/06/15 04:48:49;;;;;;;11.70;5.30;;;;;;;14.60;71.87;100892.54;110949;1207;139282;-65
2023/06/15 04:51:15;;;;;;;9.50;4.60;;;;;;;14.62;71.75;100896.36;111048;1208;98993;-63
2023/06/15 04:53:42;;;;;;;7.50;4.90;;;;;;;14.62;71.74;100895.09;110899;1211;139387;-63
2023/06/15 04:56:08;;;;;;;8.50;4.20;;;;;;;14.60;71.65;100896.44;110965;1208;98935;-63
2023/06/15 04:58:33;;;;;;;7.10;4.80;;;;;;;14.60;71.62;100894.10;111136;1209;99000;-63
2023/06/15 05:00:59;;;;;;;8.40;4.10;;;;;;;14.61;71.59;100893.53;110842;1211;140274;-63
2023/06/15 05:03:24;;;;;;;11.40;4.10;;;;;;;14.59;71.58;100893.30;111013;1209;98705;-63
2023/06/15 05:05:50;;;;;;;6.80;4.40;;;;;;;14.58;71.55;100891.54;110957;1208;138994;-62
2023/06/15 05:08:15;;;;;;;7.50;4.00;;;;;;;14.51;71.52;100893.15;110930;1210;99046;-63
2023/06/15 05:10:41;;;;;;;8.20;4.60;;;;;;;14.49;71.56;100891.15;111084;1208;98968;-62
2023/06/15 05:13:07;;;;;;;11.00;5.00;;;;;;;14.50;71.68;100892.54;110862;1211;138865;-63
2023/06/15 05:15:32;;;;;;;8.70;4.50;;;;;;;14.53;71.66;100892.02;111037;1211;99463;-63
2023/06/15 05:17:57;;;;;;;9.20;4.90;;;;;;;14.56;71.69;100891.81;110873;1212;139512;-63
2023/06/15 05:20:23;;;;;;;7.40;4.50;;;;;;;14.57;71.52;100895.52;110997;1211;99443;-63
2023/06/15 05:22:48;;;;;;;9.70;5.10;;;;;;;14.52;71.54;100894.39;111078;1208;99753;-63
2023/06/15 05:25:13;;;;;;;9.50;4.90;;;;;;;14.49;71.60;100892.21;110861;1209;139733;-62
2023/06/15 05:27:38;;;;;;;8.20;4.60;;;;;;;14.47;71.63;100891.46;110965;1208;98936;-63
2023/06/15 05:30:08;;;;;;;8.40;5.10;;;;;;;14.43;71.72;100892.93;110897;1211;139430;-63
2023/06/15 05:32:37;;;;;;;9.90;4.50;;;;;;;14.43;71.73;100893.98;111083;1211;99583;-62
2023/06/15 05:35:08;;;;;;;14.90;4.90;;;;;;;14.44;71.83;100892.84;111028;1210;107958;-62
2023/06/15 05:37:37;;;;;;;11.80;5.00;;;;;;;14.45;71.93;100893.68;110905;1208;141311;-62
2023/06/15 05:40:03;;;;;;;17.30;5.00;;;;;;;14.46;71.94;100896.50;110960;1208;98958;-63
2023/06/15 05:42:29;;;;;;;13.30;5.00;;;;;;;14.44;71.88;100892.86;111038;1211;139012;-63
2023/06/15 05:44:55;;;;;;;9.90;4.80;;;;;;;14.38;71.83;100890.31;111000;1211;99623;-63
2023/06/15 05:47:20;;;;;;;9.20;5.00;;;;;;;14.30;72.00;100888.20;111030;1219;98990;-62
2023/06/15 05:49:46;;;;;;;6.70;4.10;;;;;;;14.28;72.06;100889.05;110845;1211;139490;-63
2023/06/15 05:52:11;;;;;;;9.20;4.20;;;;;;;14.26;72.14;100886.80;111040;1211;99021;-62
2023/06/15 05:54:36;;;;;;;9.90;5.50;;;;;;;14.27;72.26;100884.95;110882;1211;138926;-62
2023/06/15 05:57:02;;;;;;;12.70;4.90;;;;;;;14.30;72.20;100894.65;110945;1211;98922;-62
2023/06/15 05:59:28;;;;;;;14.10;4.70;;;;;;;14.32;72.28;100892.77;110991;1208;139179;-63
2023/06/15 06:01:55;;;;;;;8.60;4.50;;;;;;;14.32;72.27;100892.79;111014;1216;98940;-62
2023/06/15 06:04:20;;;;;;;13.20;4.70;;;;;;;14.30;72.40;100892.55;110946;1208;98967;-63
2023/06/15 06:06:48;;;;;;;10.40;5.10;;;;;;;14.26;72.42;100891.29;110911;1212;140577;-62
2023/06/15 06:09:13;;;;;;;7.10;4.50;;;;;;;14.25;72.60;100892.23;110955;1208;113067;-63
2023/06/15 06:11:39;;;;;;;7.00;4.10;;;;;;;14.28;72.74;100893.67;110866;1208;139024;-63
2023/06/15 06:14:04;;;;;;;10.30;4.20;;;;;;;14.31;72.81;100894.27;110973;1211;99081;-63
2023/06/15 06:16:29;;;;;;;15.60;4.80;;;;;;;14.32;72.96;100893.86;110978;1209;98965;-64
2023/06/15 06:18:55;;;;;;;17.30;4.50;;;;;;;14.34;73.19;100893.79;110930;1207;139368;-62
2023/06/15 06:21:20;;;;;;;17.00;4.90;;;;;;;14.35;73.22;100894.77;110956;1212;99018;-63
2023/06/15 06:23:45;;;;;;;8.20;4.80;;;;;;;14.43;73.54;100895.23;110876;1211;140848;-63
2023/06/15 06:26:11;;;;;;;8.90;4.20;;;;;;;14.54;73.51;100893.04;111024;1211;99407;-63
2023/06/15 06:28:37;;;;;;;13.60;4.50;;;;;;;14.62;73.49;100897.27;110963;1207;98899;-62
2023/06/15 06:31:02;;;;;;;12.50;5.80;;;;;;;14.67;73.49;100893.03;110797;1208;139382;-62
2023/06/15 06:33:27;;;;;;;10.60;5.30;;;;;;;14.76;73.61;100895.92;111034;1212;99032;-62
2023/06/15 06:35:52;;;;;;;13.40;5.10;;;;;;;14.85;73.62;100896.48;110900;1208;139625;-62
2023/06/15 06:38:18;;;;;;;9.10;5.90;;;;;;;14.91;73.48;100896.47;111066;1208;98965;-62
2023/06/15 06:40:43;;;;;;;9.50;5.10;;;;;;;14.95;73.47;100895.01;110946;1211;99056;-64
2023/06/15 06:43:08;;;;;;;9.30;5.00;;;;;;;14.98;73.43;100893.75;110930;1209;138717;-64
2023/06/15 06:45:33;;;;;;;12.00;5.30;;;;;;;15.03;73.37;100895.61;110919;1208;98940;-64
2023/06/15 06:47:58;;;;;;;10.40;5.10;;;;;;;15.06;73.32;100896.33;110879;1211;139538;-66
2023/06/15 06:50:24;;;;;;;18.40;5.10;;;;;;;15.12;73.38;100901.73;110983;1211;99047;-68
2023/06/15 06:52:49;;;;;;;12.20;4.80;;;;;;;15.19;73.24;100902.79;111066;1208;98988;-64
2023/06/15 06:55:15;;;;;;;12.50;5.60;;;;;;;15.22;73.19;100905.70;110900;1218;140839;-64
2023/06/15 06:57:40;;;;;;;13.10;5.80;;;;;;;15.26;73.01;100901.30;110932;1211;99111;-64
2023/06/15 07:00:07;;;;;;;14.20;5.60;;;;;;;15.35;73.22;100899.69;110909;1211;139014;-64
2023/06/15 07:02:32;;;;;;;20.70;5.80;;;;;;;15.42;72.94;100900.37;111011;1211;99868;-64
2023/06/15 07:04:58;;;;;;;23.80;6.40;;;;;;;15.50;73.04;100895.89;110945;1211;99524;-65
2023/06/15 07:07:23;;;;;;;15.30;6.30;;;;;;;15.61;72.95;100897.23;110938;1208;139437;-64
2023/06/15 07:09:48;;;;;;;12.70;6.00;;;;;;;15.73;73.01;100898.33;110969;1209;98974;-64
2023/06/15 07:12:14;;;;;;;10.40;5.20;;;;;;;15.88;72.91;100900.42;110872;1207;138843;-64
2023/06/15 07:14:39;;;;;;;10.90;5.30;;;;;;;16.04;72.81;100898.55;110943;1209;98975;-64
2023/06/15 07:17:05;;;;;;;12.00;4.70;;;;;;;16.13;72.55;100900.89;110958;1209;99052;-64
2023/06/15 07:19:30;;;;;;;13.00;5.60;;;;;;;16.19;72.47;100897.61;110926;1211;140819;-65
2023/06/15 07:21:55;;;;;;;11.90;5.40;;;;;;;16.25;72.45;100895.26;110984;1208;99052;-64
2023/06/15 07:24:21;;;;;;;6.90;4.00;;;;;;;16.30;72.03;100897.29;110870;1213;139634;-64
2023/06/15 07:26:46;;;;;;;9.90;4.70;;;;;;;16.34;71.99;100898.12;110986;1211;99076;-62
2023/06/15 07:29:11;;;;;;;11.20;4.50;;;;;;;16.45;71.99;100902.63;110951;1208;98948;-64
2023/06/15 07:31:37;;;;;;;15.80;4.60;;;;;;;16.47;71.52;100903.21;110884;1211;139356;-62
2023/06/15 07:34:02;;;;;;;10.90;4.70;;;;;;;16.40;71.17;100899.14;110947;1208;98900;-62
2023/06/15 07:36:28;;;;;;;8.50;4.50;;;;;;;16.36;70.99;100898.73;110938;1208;139834;-63
2023/06/15 07:38:53;;;;;;;8.40;4.90;;;;;;;16.39;71.09;100895.41;110969;1211;99033;-65
2023/06/15 07:41:20;;;;;;;10.20;4.10;;;;;;;16.47;70.78;100895.80;110876;1212;99061;-62
2023/06/15 07:43:45;;;;;;;19.60;5.60;;;;;;;16.43;70.35;100893.17;111007;1208;138954;-64
2023/06/15 07:46:10;;;;;;;21.80;4.60;;;;;;;16.45;70.37;100897.60;110942;1208;99373;-62
2023/06/15 07:48:36;;;;;;;7.00;4.80;;;;;;;16.37;70.11;100898.48;110846;1211;140203;-62
2023/06/15 07:51:01;;;;;;;7.70;4.60;;;;;;;16.37;69.93;100897.40;111003;1208;99156;-62
2023/06/15 07:53:26;;;;;;;15.10;5.50;;;;;;;16.39;69.87;100895.60;110969;1209;99031;-62
2023/06/15 07:55:51;;;;;;;12.50;6.80;;;;;;;16.47;69.94;100896.02;110932;1209;139435;-62
2023/06/15 07:58:16;;;;;;;12.90;5.20;;;;;;;16.55;69.98;100895.11;110919;1208;99026;-62
2023/06/15 08:00:42;;;;;;;9.60;5.00;;;;;;;16.53;69.41;100894.34;110950;1210;139413;-62
2023/06/15 08:03:07;;;;;;;17.00;5.80;;;;;;;16.42;69.36;100893.29;110923;1208;98984;-62
2023/06/15 08:05:32;;;;;;;7.70;5.20;;;;;;;16.46;69.66;100895.70;110884;1212;162206;-63
2023/06/15 08:07:57;;;;;;;11.80;6.10;;;;;;;16.52;69.70;100893.00;110990;1209;98920;-62
2023/06/15 08:10:23;;;;;;;14.00;5.30;;;;;;;16.70;70.01;100892.23;110983;1211;99060;-62
2023/06/15 08:12:48;;;;;;;9.80;4.70;;;;;;;16.89;69.90;100894.55;110937;1210;139864;-62
2023/06/15 08:15:14;;;;;;;11.60;5.00;;;;;;;16.98;69.67;100890.88;110966;1219;99840;-62
2023/06/15 08:17:39;;;;;;;9.20;5.70;;;;;;;17.14;69.77;100888.06;110885;1209;141738;-62
2023/06/15 08:20:08;;;;;;;12.10;5.60;;;;;;;17.32;69.77;100887.22;111059;1211;99067;-63
2023/06/15 08:22:33;;;;;;;11.50;5.90;;;;;;;17.53;69.79;100882.47;110914;1212;107525;-62
2023/06/15 08:25:00;;;;;;;10.40;6.50;;;;;;;17.77;69.86;100881.06;110813;1207;139521;-62
2023/06/15 08:27:25;;;;;;;8.40;5.10;;;;;;;17.85;69.31;100878.50;111051;1208;99662;-62
2023/06/15 08:29:50;;;;;;;9.10;5.00;;;;;;;17.86;69.06;100877.55;110866;1211;142512;-62
2023/06/15 08:32:16;;;;;;;10.70;5.70;;;;;;;17.79;68.95;100875.42;111018;1208;98964;-63
2023/06/15 08:34:43;;;;;;;11.90;5.50;;;;;;;17.80;68.93;100872.50;110951;1211;99037;-65
2023/06/15 08:37:11;;;;;;;8.60;5.60;;;;;;;17.86;68.86;100870.86;110843;1209;139371;-63
2023/06/15 08:39:37;;;;;;;7.50;5.30;;;;;;;17.89;68.65;100863.23;110959;1208;100239;-62
2023/06/15 08:42:03;;;;;;;10.30;5.20;;;;;;;17.94;68.70;100865.41;110918;1211;140030;-62
2023/06/15 08:44:31;;;;;;;11.70;5.50;;;;;;;18.07;68.74;100867.89;111200;1208;98945;-64
2023/06/15 08:47:00;;;;;;;8.60;5.20;;;;;;;18.32;68.51;100871.89;110959;1212;103734;-64
2023/06/15 08:49:26;;;;;;;6.10;4.60;;;;;;;18.46;68.06;100871.55;110955;1211;154266;-63
2023/06/15 08:51:53;;;;;;;9.80;5.40;;;;;;;18.44;67.67;100868.95;110974;1211;98959;-63
2023/06/15 08:54:21;;;;;;;11.20;4.90;;;;;;;18.55;67.65;100867.30;110849;1213;139742;-63
2023/06/15 08:56:46;;;;;;;10.10;5.10;;;;;;;18.70;67.66;100866.54;111061;1208;99038;-62
2023/06/15 08:59:12;;;;;;;11.30;5.30;;;;;;;18.92;67.35;100864.95;111048;1209;100827;-63
2023/06/15 09:01:43;;;;;;;6.10;4.70;;;;;;;19.06;67.28;100861.89;110841;1208;139398;-62
2023/06/15 09:04:09;;;;;;;10.10;5.20;;;;;;;19.13;66.70;100857.36;110956;1207;99016;-62
2023/06/15 09:06:34;;;;;;;11.20;5.20;;;;;;;19.04;66.07;100857.46;110860;1212;139073;-63
2023/06/15 09:09:00;;;;;;;18.50;6.00;;;;;;;18.95;66.03;100856.94;111017;1211;99159;-62
2023/06/15 09:11:26;;;;;;;14.40;5.80;;;;;;;18.87;65.68;100860.98;110970;1211;98989;-62
2023/06/15 09:13:53;;;;;;;11.00;5.40;;;;;;;18.85;65.63;100858.95;110913;1208;138538;-62
2023/06/15 09:16:19;;;;;;;12.00;6.30;;;;;;;18.74;65.16;100866.08;111067;1208;98955;-62
2023/06/15 09:18:51;;;;;;;8.80;5.20;;;;;;;18.52;64.76;100866.41;110935;1208;138712;-62
2023/06/15 09:21:18;;;;;;;6.70;4.70;;;;;;;18.35;64.97;100862.41;111028;1211;99078;-62
2023/06/15 09:23:46;;;;;;;8.50;4.30;;;;;;;18.25;64.93;100857.73;110863;1208;140052;-63
2023/06/15 09:26:22;;;;;;;15.80;4.80;;;;;;;18.17;65.06;100858.31;110996;1211;99022;-64
2023/06/15 09:28:48;;;;;;;12.30;5.40;;;;;;;18.16;65.08;100859.45;111005;1211;104412;-63
2023/06/15 09:31:29;;;;;;;13.30;5.60;;;;;;;18.17;64.94;100857.77;110759;1208;139678;-64
2023/06/15 09:34:02;;;;;;;12.00;4.60;;;;;;;18.20;64.92;100855.71;111081;1211;99525;-64
2023/06/15 09:36:38;;;;;;;7.70;4.30;;;;;;;18.23;64.82;100854.62;110987;1212;139363;-62
2023/06/15 09:39:04;;;;;;;11.20;3.80;;;;;;;18.22;64.80;100854.52;111163;1211;99189;-64
2023/06/15 09:41:30;;;;;;;12.80;4.40;;;;;;;18.30;64.89;100852.63;110935;1211;140613;-62
2023/06/15 09:43:56;;;;;;;14.60;4.60;;;;;;;18.44;64.75;100850.91;111011;1211;100350;-62
2023/06/15 09:46:27;;;;;;;5.90;4.00;;;;;;;18.55;64.59;100844.70;110973;1220;98928;-62
2023/06/15 09:48:52;;;;;;;;;;;;;;;18.71;64.55;100842.07;110924;1211;139851;-62
2023/06/15 09:51:18;;;;;;;10.30;5.30;;;;;;;18.83;64.47;100839.70;110961;1208;99105;-64
2023/06/15 09:53:45;;;;;;;13.50;5.30;;;;;;;18.90;64.09;100836.13;110911;1211;139035;-65
2023/06/15 09:56:11;;;;;;;10.70;4.70;;;;;;;18.99;64.01;100835.44;111014;1211;99038;-62
2023/06/15 09:58:36;;;;;;;11.00;5.00;;;;;;;19.02;63.51;100825.94;110989;1211;99044;-62
2023/06/15 10:01:04;;;;;;;8.30;5.10;;;;;;;18.97;63.47;100823.25;110901;1211;138117;-63
2023/06/15 10:03:31;;;;;;;10.20;4.70;;;;;;;19.02;63.15;100826.29;111008;1211;99050;-63
2023/06/15 10:06:11;;;;;;;7.70;4.10;;;;;;;19.07;63.02;100826.65;110836;1216;138837;-63
2023/06/15 10:08:40;;;;;;;16.50;6.20;;;;;;;19.14;62.90;100825.25;110995;1208;101493;-63
2023/06/15 10:11:08;;;;;;;10.40;4.50;;;;;;;19.25;62.83;100820.26;111052;1208;104249;-64
2023/06/15 10:13:48;;;;;;;11.50;5.60;;;;;;;19.31;62.10;100819.77;110858;1210;139095;-63
2023/06/15 10:16:17;;;;;;;7.80;4.00;;;;;;;19.27;61.75;100811.94;110942;1208;99442;-63
2023/06/15 10:18:46;;;;;;;11.00;4.10;;;;;;;19.38;61.94;100808.66;110810;1211;139697;-63
2023/06/15 10:21:15;;;;;;;10.10;4.40;;;;;;;19.68;61.97;100811.24;111056;1211;101908;-63
2023/06/15 10:23:42;;;;;;;11.90;4.10;;;;;;;19.99;61.59;100807.16;110872;1211;139047;-63
2023/06/15 10:26:09;;;;;;;7.90;4.40;;;;;;;20.12;61.41;100807.41;110952;1208;98946;-63
2023/06/15 10:28:42;;;;;;;15.50;4.30;;;;;;;20.10;60.83;100802.10;111101;1211;100404;-63
2023/06/15 10:31:25;;;;;;;9.30;5.20;;;;;;;20.03;60.33;100803.21;110869;1211;139034;-63
2023/06/15 10:33:56;;;;;;;8.30;5.20;;;;;;;19.74;59.40;100806.66;110924;1209;97805;-63
2023/06/15 10:36:30;;;;;;;8.30;4.50;;;;;;;19.41;59.88;100808.98;110832;1209;139475;-63
2023/06/15 10:39:10;;;;;;;12.70;5.40;;;;;;;19.24;60.15;100802.52;111008;1209;99076;-67
2023/06/15 10:41:36;;;;;;;8.70;5.20;;;;;;;19.23;60.33;100802.29;110944;1211;140907;-63
2023/06/15 10:44:03;;;;;;;16.60;5.40;;;;;;;19.21;60.60;100803.30;110926;1211;99185;-63
2023/06/15 10:46:30;;;;;;;11.10;5.40;;;;;;;19.31;60.67;100798.05;110995;1209;98973;-63
2023/06/15 10:49:02;;;;;;;7.80;5.30;;;;;;;19.39;60.73;100798.68;110983;1208;139810;-63
2023/06/15 10:51:29;;;;;;;8.20;5.00;;;;;;;19.52;60.77;100799.11;111034;1208;98945;-63
2023/06/15 10:53:55;;;;;;;13.20;5.40;;;;;;;19.59;60.62;100798.73;110846;1214;138276;-63
2023/06/15 10:56:22;;;;;;;10.00;4.80;;;;;;;19.60;60.48;100796.64;110935;1209;98644;-63
2023/06/15 10:58:54;;;;;;;13.60;4.80;;;;;;;19.64;60.70;100806.48;111116;1208;99054;-63
2023/06/15 11:01:22;;;;;;;14.40;5.30;;;;;;;19.54;60.16;100810.89;110848;1211;138301;-63
2023/06/15 11:03:48;;;;;;;10.10;4.60;;;;;;;19.23;59.87;100804.76;110942;1211;99824;-63
2023/06/15 11:06:19;;;;;;;17.30;5.10;;;;;;;18.94;59.81;100805.75;110839;1211;139135;-63
2023/06/15 11:08:50;;;;;;;12.40;4.90;;;;;;;18.81;59.97;100807.61;111054;1208;98965;-63